Time,TemperatureF,DewpointF,PressureIn,WindDirection,WindDirectionDegrees,WindSpeedMPH,WindSpeedGustMPH,Humidity,HourlyPrecipIn,Conditions,Clouds,dailyrainin,SoftwareType,DateUTC
2013-05-30 00:00:00,47.0,-99.9,29.97,SSE,162,6.0,7.0,-999,-99.99,,,-99.99,,2013-05-30 04:00:00,
2013-05-30 00:42:00,47.0,-99.9,29.97,SSE,162,6.0,7.0,-999,-99.99,,,-99.99,,2013-05-30 04:42:00,
2013-05-30 00:53:00,47.0,-99.9,29.97,SSE,162,6.0,7.0,-999,-99.99,,,-99.99,,2013-05-30 04:53:00,
2013-05-30 01:00:00,47.0,-99.9,29.95,South,181,6.0,7.0,-999,-99.99,,,-99.99,,2013-05-30 05:00:00,
2013-05-30 01:43:00,47.0,-99.9,29.95,South,181,6.0,7.0,-999,-99.99,,,-99.99,,2013-05-30 05:43:00,
2013-05-30 01:52:00,47.0,-99.9,29.95,South,181,6.0,7.0,-999,-99.99,,,-99.99,,2013-05-30 05:52:00,
2013-05-30 02:00:00,47.0,-99.9,29.94,SSW,198,6.0,6.0,-999,-99.99,,,-99.99,,2013-05-30 06:00:00,
2013-05-30 02:42:00,47.0,-99.9,29.94,SSW,198,6.0,6.0,-999,-99.99,,,-99.99,,2013-05-30 06:42:00,
2013-05-30 02:52:00,47.0,-99.9,29.94,SSW,198,6.0,6.0,-999,-99.99,,,-99.99,,2013-05-30 06:52:00,
2013-05-30 03:00:00,47.0,-99.9,29.92,SW,224,8.0,9.0,-999,-99.99,,,-99.99,,2013-05-30 07:00:00,
2013-05-30 03:42:00,47.0,-99.9,29.92,SW,224,8.0,9.0,-999,-99.99,,,-99.99,,2013-05-30 07:42:00,
2013-05-30 03:52:00,47.0,-99.9,29.92,SW,224,8.0,9.0,-999,-99.99,,,-99.99,,2013-05-30 07:52:00,
2013-05-30 04:00:00,47.0,-99.9,29.92,SW,226,6.0,7.0,-999,-99.99,,,-99.99,,2013-05-30 08:00:00,
2013-05-30 04:42:00,47.0,-99.9,29.92,SW,226,6.0,7.0,-999,-99.99,,,-99.99,,2013-05-30 08:42:00,
2013-05-30 04:53:00,47.0,-99.9,29.92,SW,226,6.0,7.0,-999,-99.99,,,-99.99,,2013-05-30 08:53:00,
2013-05-30 05:00:00,47.0,-99.9,29.93,WSW,250,4.0,5.0,-999,-99.99,,,-99.99,,2013-05-30 09:00:00,
2013-05-30 05:43:00,47.0,-99.9,29.93,WSW,250,4.0,5.0,-999,-99.99,,,-99.99,,2013-05-30 09:43:00,
2013-05-30 05:53:00,47.0,-99.9,29.93,WSW,250,4.0,5.0,-999,-99.99,,,-99.99,,2013-05-30 09:53:00,
2013-05-30 06:00:00,47.0,-99.9,29.93,WSW,245,3.0,4.0,-999,-99.99,,,-99.99,,2013-05-30 10:00:00,
2013-05-30 06:42:00,47.0,-99.9,29.93,WSW,245,3.0,4.0,-999,-99.99,,,-99.99,,2013-05-30 10:42:00,
2013-05-30 06:52:00,47.0,-99.9,29.93,WSW,245,3.0,4.0,-999,-99.99,,,-99.99,,2013-05-30 10:52:00,
2013-05-30 07:00:00,47.0,-99.9,29.95,SSW,201,4.0,6.0,-999,-99.99,,,-99.99,,2013-05-30 11:00:00,
2013-05-30 07:42:00,47.0,-99.9,29.95,SSW,201,4.0,6.0,-999,-99.99,,,-99.99,,2013-05-30 11:42:00,
2013-05-30 07:52:00,47.0,-99.9,29.95,SSW,201,4.0,6.0,-999,-99.99,,,-99.99,,2013-05-30 11:52:00,
2013-05-30 08:00:00,47.0,-99.9,29.96,SW,232,4.0,5.0,-999,-99.99,,,-99.99,,2013-05-30 12:00:00,
2013-05-30 08:42:00,47.0,-99.9,29.96,SW,232,4.0,5.0,-999,-99.99,,,-99.99,,2013-05-30 12:42:00,
2013-05-30 08:52:00,47.0,-99.9,29.96,SW,232,4.0,5.0,-999,-99.99,,,-99.99,,2013-05-30 12:52:00,
2013-05-30 09:00:00,48.0,-99.9,29.98,SW,232,10.0,12.0,-999,-99.99,,,-99.99,,2013-05-30 13:00:00,
2013-05-30 09:42:00,48.0,-99.9,29.98,SW,232,10.0,12.0,-999,-99.99,,,-99.99,,2013-05-30 13:42:00,
2013-05-30 09:52:00,48.0,-99.9,29.98,SW,232,10.0,12.0,-999,-99.99,,,-99.99,,2013-05-30 13:52:00,
2013-05-30 10:00:00,48.0,-99.9,29.98,SW,236,4.0,6.0,-999,-99.99,,,-99.99,,2013-05-30 14:00:00,
2013-05-30 10:42:00,48.0,-99.9,29.98,SW,236,4.0,6.0,-999,-99.99,,,-99.99,,2013-05-30 14:42:00,
2013-05-30 10:52:00,48.0,-99.9,29.98,SW,236,4.0,6.0,-999,-99.99,,,-99.99,,2013-05-30 14:52:00,
2013-05-30 11:00:00,48.0,-99.9,29.98,WSW,245,4.0,6.0,-999,-99.99,,,-99.99,,2013-05-30 15:00:00,
2013-05-30 11:43:00,48.0,-99.9,29.98,WSW,245,4.0,6.0,-999,-99.99,,,-99.99,,2013-05-30 15:43:00,
2013-05-30 11:53:00,48.0,-99.9,29.98,WSW,245,4.0,6.0,-999,-99.99,,,-99.99,,2013-05-30 15:53:00,
2013-05-30 12:00:00,49.0,-99.9,29.97,South,178,4.0,5.0,-999,-99.99,,,-99.99,,2013-05-30 16:00:00,
2013-05-30 12:42:00,49.0,-99.9,29.97,South,178,4.0,5.0,-999,-99.99,,,-99.99,,2013-05-30 16:42:00,
2013-05-30 12:53:00,49.0,-99.9,29.97,South,178,4.0,5.0,-999,-99.99,,,-99.99,,2013-05-30 16:53:00,
2013-05-30 13:00:00,49.0,-99.9,29.96,SW,232,10.0,12.0,-999,-99.99,,,-99.99,,2013-05-30 17:00:00,
2013-05-30 13:42:00,49.0,-99.9,29.96,SW,232,10.0,12.0,-999,-99.99,,,-99.99,,2013-05-30 17:42:00,
2013-05-30 13:52:00,49.0,-99.9,29.96,SW,232,10.0,12.0,-999,-99.99,,,-99.99,,2013-05-30 17:52:00,
2013-05-30 14:00:00,50.0,-99.9,29.94,SW,227,7.0,9.0,-999,-99.99,,,-99.99,,2013-05-30 18:00:00,
2013-05-30 14:43:00,50.0,-99.9,29.94,SW,227,7.0,9.0,-999,-99.99,,,-99.99,,2013-05-30 18:43:00,
2013-05-30 14:52:00,50.0,-99.9,29.94,SW,227,7.0,9.0,-999,-99.99,,,-99.99,,2013-05-30 18:52:00,
2013-05-30 15:00:00,51.0,-99.9,29.94,SW,223,9.0,10.0,-999,-99.99,,,-99.99,,2013-05-30 19:00:00,
2013-05-30 15:42:00,51.0,-99.9,29.94,SW,223,9.0,10.0,-999,-99.99,,,-99.99,,2013-05-30 19:42:00,
2013-05-30 15:53:00,51.0,-99.9,29.94,SW,223,9.0,10.0,-999,-99.99,,,-99.99,,2013-05-30 19:53:00,
2013-05-30 16:00:00,51.0,-99.9,29.93,SW,226,11.0,12.0,-999,-99.99,,,-99.99,,2013-05-30 20:00:00,
2013-05-30 16:42:00,51.0,-99.9,29.93,SW,226,11.0,12.0,-999,-99.99,,,-99.99,,2013-05-30 20:42:00,
2013-05-30 16:52:00,51.0,-99.9,29.93,SW,226,11.0,12.0,-999,-99.99,,,-99.99,,2013-05-30 20:52:00,
2013-05-30 17:00:00,51.0,-99.9,29.93,SW,222,11.0,12.0,-999,-99.99,,,-99.99,,2013-05-30 21:00:00,
2013-05-30 17:43:00,51.0,-99.9,29.93,SW,222,11.0,12.0,-999,-99.99,,,-99.99,,2013-05-30 21:43:00,
2013-05-30 17:53:00,51.0,-99.9,29.93,SW,222,11.0,12.0,-999,-99.99,,,-99.99,,2013-05-30 21:53:00,
2013-05-30 18:00:00,51.0,-99.9,29.93,SSW,198,6.0,7.0,-999,-99.99,,,-99.99,,2013-05-30 22:00:00,
2013-05-30 18:42:00,51.0,-99.9,29.93,SSW,198,6.0,7.0,-999,-99.99,,,-99.99,,2013-05-30 22:42:00,
2013-05-30 18:52:00,51.0,-99.9,29.93,SSW,198,6.0,7.0,-999,-99.99,,,-99.99,,2013-05-30 22:52:00,
2013-05-30 19:00:00,51.0,-99.9,29.95,SSW,208,6.0,8.0,-999,-99.99,,,-99.99,,2013-05-30 23:00:00,
2013-05-30 19:42:00,51.0,-99.9,29.95,SSW,208,6.0,8.0,-999,-99.99,,,-99.99,,2013-05-30 23:42:00,
2013-05-30 19:52:00,51.0,-99.9,29.95,SSW,208,6.0,8.0,-999,-99.99,,,-99.99,,2013-05-30 23:52:00,
2013-05-30 20:00:00,51.0,-99.9,29.96,SW,214,3.0,4.0,-999,-99.99,,,-99.99,,2013-05-31 00:00:00,
2013-05-30 20:42:00,51.0,-99.9,29.96,SW,214,3.0,4.0,-999,-99.99,,,-99.99,,2013-05-31 00:42:00,
2013-05-30 20:52:00,51.0,-99.9,29.96,SW,214,3.0,4.0,-999,-99.99,,,-99.99,,2013-05-31 00:52:00,
2013-05-30 21:00:00,51.0,-99.9,29.97,SSW,204,4.0,5.0,-999,-99.99,,,-99.99,,2013-05-31 01:00:00,
2013-05-30 21:42:00,51.0,-99.9,29.97,SSW,204,4.0,5.0,-999,-99.99,,,-99.99,,2013-05-31 01:42:00,
2013-05-30 21:52:00,51.0,-99.9,29.97,SSW,204,4.0,5.0,-999,-99.99,,,-99.99,,2013-05-31 01:52:00,
2013-05-30 22:00:00,50.0,-99.9,29.98,South,188,3.0,5.0,-999,-99.99,,,-99.99,,2013-05-31 02:00:00,
2013-05-30 22:42:00,50.0,-99.9,29.98,South,188,3.0,5.0,-999,-99.99,,,-99.99,,2013-05-31 02:42:00,
2013-05-30 22:52:00,50.0,-99.9,29.98,South,188,3.0,5.0,-999,-99.99,,,-99.99,,2013-05-31 02:52:00,
2013-05-30 23:00:00,50.0,-99.9,29.98,SW,226,6.0,7.0,-999,-99.99,,,-99.99,,2013-05-31 03:00:00,
2013-05-30 23:43:00,50.0,-99.9,29.98,SW,226,6.0,7.0,-999,-99.99,,,-99.99,,2013-05-31 03:43:00,
2013-05-30 23:54:00,50.0,-99.9,29.98,SW,226,6.0,7.0,-999,-99.99,,,-99.99,,2013-05-31 03:54:00,